createdAt,value
2016-08-27T00:00:57.005Z,1013.16
2016-08-27T00:01:57.037Z,1013.19
2016-08-27T00:02:57.057Z,1013.16
2016-08-27T00:03:57.084Z,1013.18
2016-08-27T00:04:57.117Z,1013.2
2016-08-27T00:06:57.171Z,1013.21
2016-08-27T00:07:57.192Z,1013.24
2016-08-27T00:08:57.218Z,1013.23
2016-08-27T00:09:57.246Z,1013.26
2016-08-27T00:10:57.273Z,1013.25
2016-08-27T00:11:57.303Z,1013.26
2016-08-27T00:12:57.327Z,1013.24
2016-08-27T00:13:57.354Z,1013.22
2016-08-27T00:14:57.382Z,1013.17
2016-08-27T00:15:57.408Z,1013.21
2016-08-27T00:16:57.437Z,1013.21
2016-08-27T00:17:57.462Z,1013.22
2016-08-27T00:18:57.489Z,1013.23
2016-08-27T00:19:57.522Z,1013.23
2016-08-27T00:20:57.544Z,1013.26
2016-08-27T00:22:57.597Z,1013.27
2016-08-27T00:23:57.625Z,1013.31
2016-08-27T00:24:57.657Z,1013.31
2016-08-27T00:25:57.680Z,1013.39
2016-08-27T00:26:57.704Z,1013.41
2016-08-27T00:27:57.731Z,1013.58
2016-08-27T00:28:57.758Z,1013.67
2016-08-27T00:29:57.785Z,1013.7
2016-08-27T00:30:57.812Z,1013.61
2016-08-27T00:31:57.845Z,1013.59
2016-08-27T00:32:57.867Z,1013.64
2016-08-27T00:33:57.896Z,1013.74
2016-08-27T00:34:57.926Z,1013.76
2016-08-27T00:35:57.947Z,1013.76
2016-08-27T00:36:57.980Z,1013.66
2016-08-27T00:38:58.027Z,1013.66
2016-08-27T00:39:58.054Z,1013.7
2016-08-27T00:40:58.084Z,1013.75
2016-08-27T00:41:58.107Z,1013.67
2016-08-27T00:42:58.135Z,1013.59
2016-08-27T00:43:58.168Z,1013.67
2016-08-27T00:44:58.189Z,1013.77
2016-08-27T00:45:58.215Z,1013.82
2016-08-27T00:46:58.245Z,1013.82
2016-08-27T00:47:58.269Z,1013.74
2016-08-27T00:48:58.302Z,1013.71
2016-08-27T00:49:58.323Z,1013.72
2016-08-27T00:50:58.349Z,1013.77
2016-08-27T00:51:58.433Z,1013.77
2016-08-27T00:52:58.409Z,1013.72
2016-08-27T00:54:58.458Z,1013.6
2016-08-27T00:55:58.491Z,1013.62
2016-08-27T00:56:58.511Z,1013.73
2016-08-27T00:57:58.543Z,1013.75
2016-08-27T00:58:58.567Z,1013.72
2016-08-27T00:59:58.592Z,1013.68
2016-08-27T01:00:58.627Z,1013.7
2016-08-27T01:01:58.645Z,1013.72
2016-08-27T01:02:58.685Z,1013.67
2016-08-27T01:03:58.698Z,1013.68
2016-08-27T01:04:58.725Z,1013.67
2016-08-27T01:05:58.754Z,1013.71
2016-08-27T01:06:58.782Z,1013.71
2016-08-27T01:07:58.807Z,1013.69
2016-08-27T01:09:58.867Z,1013.69
2016-08-27T01:10:58.894Z,1013.68
2016-08-27T01:11:58.916Z,1013.69
2016-08-27T01:12:58.949Z,1013.73
2016-08-27T01:13:58.969Z,1013.72
2016-08-27T01:14:59.001Z,1013.71
2016-08-27T01:15:59.024Z,1013.64
2016-08-27T01:16:59.055Z,1013.63
2016-08-27T01:17:59.088Z,1013.7
2016-08-27T01:18:59.103Z,1013.67
2016-08-27T01:19:59.131Z,1013.76
2016-08-27T01:20:59.157Z,1013.72
2016-08-27T01:21:59.189Z,1013.75
2016-08-27T01:22:59.213Z,1013.76
2016-08-27T01:23:59.243Z,1013.74
2016-08-27T01:24:59.264Z,1013.76
2016-08-27T01:25:59.290Z,1013.71
2016-08-27T01:26:59.318Z,1013.72
2016-08-27T01:27:59.349Z,1013.77
2016-08-27T01:28:59.371Z,1013.77
2016-08-27T01:29:59.396Z,1013.78
2016-08-27T01:30:59.423Z,1013.76
2016-08-27T01:31:59.458Z,1013.77
2016-08-27T01:32:59.476Z,1013.77
2016-08-27T01:33:59.504Z,1013.8
2016-08-27T01:34:59.531Z,1013.81
2016-08-27T01:35:59.557Z,1013.82
2016-08-27T01:36:59.586Z,1013.81
2016-08-27T01:37:59.612Z,1013.84
2016-08-27T01:38:59.643Z,1013.83
2016-08-27T01:39:59.663Z,1013.84
2016-08-27T01:41:59.724Z,1013.81
2016-08-27T01:42:59.746Z,1013.82
2016-08-27T01:43:59.772Z,1013.77
2016-08-27T01:44:59.796Z,1013.83
2016-08-27T01:45:59.830Z,1013.88
2016-08-27T01:46:59.864Z,1013.9
2016-08-27T01:47:59.883Z,1013.89
2016-08-27T01:48:59.953Z,1013.84
2016-08-27T01:49:59.931Z,1013.88
2016-08-27T01:50:59.958Z,1013.89
2016-08-27T01:52:00.035Z,1013.89
2016-08-27T01:53:00.020Z,1013.87
2016-08-27T01:54:00.043Z,1013.87
2016-08-27T01:55:00.065Z,1013.86
2016-08-27T01:56:00.096Z,1013.86
2016-08-27T01:58:00.150Z,1013.89
2016-08-27T01:59:00.169Z,1013.86
2016-08-27T02:00:00.202Z,1013.89
2016-08-27T02:01:00.225Z,1013.89
2016-08-27T02:02:00.248Z,1013.88
2016-08-27T02:03:00.275Z,1013.86
2016-08-27T02:04:00.302Z,1013.84
2016-08-27T02:05:00.341Z,1013.82
2016-08-27T02:06:00.357Z,1013.84
2016-08-27T02:07:00.382Z,1013.84
2016-08-27T02:08:00.408Z,1013.84
2016-08-27T02:09:00.436Z,1013.84
2016-08-27T02:10:00.463Z,1013.85
2016-08-27T02:11:00.495Z,1013.87
2016-08-27T02:12:00.515Z,1013.88
2016-08-27T02:14:00.568Z,1013.83
2016-08-27T02:15:00.599Z,1013.8
2016-08-27T02:16:00.627Z,1013.81
2016-08-27T02:17:00.649Z,1013.85
2016-08-27T02:18:00.673Z,1013.85
2016-08-27T02:19:00.708Z,1013.86
2016-08-27T02:20:00.733Z,1013.92
2016-08-27T02:21:00.752Z,1013.93
2016-08-27T02:22:00.787Z,1013.95
2016-08-27T02:23:00.807Z,1013.95
2016-08-27T02:24:00.832Z,1013.94
2016-08-27T02:25:00.860Z,1013.96
2016-08-27T02:26:00.885Z,1013.95
2016-08-27T02:27:00.912Z,1013.94
2016-08-27T02:28:00.938Z,1013.96
2016-08-27T02:30:00.991Z,1013.92
2016-08-27T02:31:01.022Z,1013.93
2016-08-27T02:32:01.043Z,1014
2016-08-27T02:33:01.070Z,1013.95
2016-08-27T02:34:01.098Z,1013.96
2016-08-27T02:35:01.128Z,1013.93
2016-08-27T02:36:01.206Z,1013.94
2016-08-27T02:37:01.177Z,1013.94
2016-08-27T02:38:01.202Z,1013.95
2016-08-27T02:39:01.234Z,1013.93
2016-08-27T02:40:01.255Z,1013.95
2016-08-27T02:41:01.287Z,1013.91
2016-08-27T02:42:01.310Z,1013.93
2016-08-27T02:43:01.342Z,1013.92
2016-08-27T02:45:01.387Z,1013.96
2016-08-27T02:46:01.419Z,1013.9
2016-08-27T02:47:01.439Z,1013.95
2016-08-27T02:48:01.472Z,1013.96
2016-08-27T02:49:01.495Z,1013.96
2016-08-27T02:50:01.519Z,1013.99
2016-08-27T02:51:01.545Z,1014
2016-08-27T02:52:01.621Z,1014.01
2016-08-27T02:53:01.598Z,1014
2016-08-27T02:54:01.624Z,1014.01
2016-08-27T02:55:01.657Z,1013.99
2016-08-27T02:56:01.683Z,1013.96
2016-08-27T02:57:01.703Z,1013.99
2016-08-27T02:58:01.736Z,1013.97
2016-08-27T02:59:01.763Z,1013.96
2016-08-27T03:00:01.783Z,1013.94
2016-08-27T03:01:01.808Z,1013.96
2016-08-27T03:02:01.841Z,1013.99
2016-08-27T03:03:01.861Z,1013.97
2016-08-27T03:04:01.889Z,1013.96
2016-08-27T03:05:01.918Z,1013.92
2016-08-27T03:06:01.942Z,1013.93
2016-08-27T03:07:01.967Z,1013.93
2016-08-27T03:08:01.994Z,1013.91
2016-08-27T03:09:02.025Z,1013.92
2016-08-27T03:10:02.045Z,1013.89
2016-08-27T03:11:02.072Z,1013.94
2016-08-27T03:12:02.111Z,1013.9
2016-08-27T03:13:02.125Z,1013.89
2016-08-27T03:14:02.157Z,1013.91
2016-08-27T03:15:02.176Z,1013.94
2016-08-27T03:17:02.229Z,1013.92
2016-08-27T03:18:02.255Z,1013.9
2016-08-27T03:19:02.281Z,1013.9
2016-08-27T03:20:02.314Z,1013.89
2016-08-27T03:21:02.334Z,1013.9
2016-08-27T03:22:02.361Z,1013.92
2016-08-27T03:23:02.388Z,1013.95
2016-08-27T03:24:02.412Z,1013.92
2016-08-27T03:25:02.439Z,1013.95
2016-08-27T03:26:02.465Z,1013.96
2016-08-27T03:27:02.491Z,1013.98
2016-08-27T03:28:02.519Z,1013.99
2016-08-27T03:29:02.546Z,1013.99
2016-08-27T03:30:02.570Z,1013.97
2016-08-27T03:31:02.600Z,1014
2016-08-27T03:33:02.649Z,1014.01
2016-08-27T03:34:02.675Z,1014
2016-08-27T03:35:02.702Z,1014.01
2016-08-27T03:36:02.729Z,1013.98
2016-08-27T03:37:02.753Z,1013.99
2016-08-27T03:38:02.785Z,1013.97
2016-08-27T03:39:02.813Z,1013.99
2016-08-27T03:40:02.838Z,1014
2016-08-27T03:41:02.865Z,1014.01
2016-08-27T03:42:02.890Z,1013.99
2016-08-27T03:43:02.910Z,1014.02
2016-08-27T03:44:02.938Z,1014.02
2016-08-27T03:45:02.969Z,1014.01
2016-08-27T03:46:02.989Z,1014.03
2016-08-27T03:47:03.022Z,1014.04
2016-08-27T03:49:03.067Z,1014.05
2016-08-27T03:50:03.094Z,1014.04
2016-08-27T03:51:03.122Z,1014.04
2016-08-27T03:52:03.151Z,1014.06
2016-08-27T03:53:03.174Z,1014.05
2016-08-27T03:54:03.205Z,1014.07
2016-08-27T03:55:03.277Z,1014.09
2016-08-27T03:56:03.256Z,1014.06
2016-08-27T03:57:03.282Z,1014.12
2016-08-27T03:58:03.309Z,1014.12
2016-08-27T03:59:03.330Z,1014.09
2016-08-27T04:00:03.357Z,1014.15
2016-08-27T04:01:03.395Z,1014.16
2016-08-27T04:02:03.409Z,1014.16
2016-08-27T04:03:03.433Z,1014.16
2016-08-27T04:05:03.485Z,1014.19
2016-08-27T04:06:03.514Z,1014.16
2016-08-27T04:07:03.538Z,1014.17
2016-08-27T04:08:03.569Z,1014.18
2016-08-27T04:09:03.591Z,1014.16
2016-08-27T04:10:03.616Z,1014.22
2016-08-27T04:11:03.647Z,1014.24
2016-08-27T04:12:03.670Z,1014.2
2016-08-27T04:13:03.700Z,1014.2
2016-08-27T04:14:03.719Z,1014.21
2016-08-27T04:15:03.746Z,1014.22
2016-08-27T04:16:03.772Z,1014.21
2016-08-27T04:17:03.798Z,1014.27
2016-08-27T04:18:03.825Z,1014.3
2016-08-27T04:20:03.884Z,1014.29
2016-08-27T04:21:03.909Z,1014.26
2016-08-27T04:22:03.929Z,1014.3
2016-08-27T04:23:03.958Z,1014.28
2016-08-27T04:24:03.983Z,1014.27
2016-08-27T04:25:04.013Z,1014.3
2016-08-27T04:26:04.033Z,1014.29
2016-08-27T04:27:04.060Z,1014.23
2016-08-27T04:28:04.086Z,1014.3
2016-08-27T04:29:04.111Z,1014.27
2016-08-27T04:30:04.140Z,1014.28
2016-08-27T04:31:04.165Z,1014.25
2016-08-27T04:32:04.189Z,1014.26
2016-08-27T04:33:04.222Z,1014.24
2016-08-27T04:34:04.249Z,1014.27
2016-08-27T04:35:04.271Z,1014.25
2016-08-27T04:36:04.297Z,1014.27
2016-08-27T04:37:04.331Z,1014.28
2016-08-27T04:38:04.347Z,1014.29
2016-08-27T04:39:04.372Z,1014.35
2016-08-27T04:40:04.399Z,1014.34
2016-08-27T04:41:04.431Z,1014.29
2016-08-27T04:42:04.453Z,1014.33
2016-08-27T04:43:04.483Z,1014.31
2016-08-27T04:44:04.503Z,1014.33
2016-08-27T04:45:04.529Z,1014.35
2016-08-27T04:46:04.555Z,1014.36
2016-08-27T04:47:04.581Z,1014.42
2016-08-27T04:48:04.610Z,1014.47
2016-08-27T04:49:04.640Z,1014.53
2016-08-27T04:50:04.659Z,1014.6
2016-08-27T04:52:04.719Z,1014.58
2016-08-27T04:53:04.739Z,1014.6
2016-08-27T04:54:04.766Z,1014.6
2016-08-27T04:55:04.794Z,1014.6
2016-08-27T04:56:04.826Z,1014.66
2016-08-27T04:57:04.850Z,1014.67
2016-08-27T04:58:04.874Z,1014.67
2016-08-27T04:59:04.905Z,1014.64
2016-08-27T05:00:04.932Z,1014.73
2016-08-27T05:01:04.958Z,1014.74
2016-08-27T05:02:04.988Z,1014.75
2016-08-27T05:03:05.015Z,1014.77
2016-08-27T05:04:05.051Z,1014.78
2016-08-27T05:05:05.073Z,1014.79
2016-08-27T05:06:05.102Z,1014.79
2016-08-27T05:08:05.168Z,1014.86
2016-08-27T05:09:05.192Z,1014.87
2016-08-27T05:10:05.223Z,1014.89
2016-08-27T05:11:05.251Z,1014.82
2016-08-27T05:12:05.280Z,1014.81
2016-08-27T05:13:05.311Z,1014.85
2016-08-27T05:14:05.344Z,1014.81
2016-08-27T05:15:05.374Z,1014.72
2016-08-27T05:16:05.404Z,1014.7
2016-08-27T05:17:05.437Z,1014.74
2016-08-27T05:18:05.469Z,1014.76
2016-08-27T05:19:05.498Z,1014.75
2016-08-27T05:20:05.536Z,1014.78
2016-08-27T05:21:05.563Z,1014.8
2016-08-27T05:22:05.599Z,1014.77
2016-08-27T05:24:05.654Z,1014.8
2016-08-27T05:25:05.686Z,1014.91
2016-08-27T05:26:05.722Z,1014.93
2016-08-27T05:27:05.751Z,1014.92
2016-08-27T05:28:05.776Z,1014.98
2016-08-27T05:29:05.807Z,1014.98
2016-08-27T05:30:05.843Z,1015.01
2016-08-27T05:31:05.868Z,1015.01
2016-08-27T05:32:05.903Z,1015.02
2016-08-27T05:33:05.928Z,1015.06
2016-08-27T05:34:05.956Z,1015.07
2016-08-27T05:35:05.985Z,1015.07
2016-08-27T05:36:06.021Z,1015.07
2016-08-27T05:37:06.051Z,1015.1
2016-08-27T05:38:06.075Z,1015.18
2016-08-27T05:40:06.147Z,1015.26
2016-08-27T05:41:06.162Z,1015.34
2016-08-27T05:42:06.190Z,1015.39
2016-08-27T05:43:06.220Z,1015.35
2016-08-27T05:44:06.256Z,1015.24
2016-08-27T05:45:06.279Z,1015.25
2016-08-27T05:46:06.311Z,1015.2
2016-08-27T05:47:06.339Z,1015.32
2016-08-27T05:48:06.370Z,1015.45
2016-08-27T05:49:06.398Z,1015.33
2016-08-27T05:50:06.430Z,1015.37
2016-08-27T05:51:06.461Z,1015.53
2016-08-27T05:52:06.491Z,1015.54
2016-08-27T05:53:06.524Z,1015.61
2016-08-27T05:55:06.591Z,1015.67
2016-08-27T05:56:06.622Z,1015.71
2016-08-27T05:57:06.648Z,1015.68
2016-08-27T05:58:06.679Z,1015.69
2016-08-27T05:59:06.719Z,1015.69
2016-08-27T06:00:06.747Z,1015.74
2016-08-27T06:01:06.781Z,1015.8
2016-08-27T06:02:06.817Z,1016.1
2016-08-27T06:03:06.846Z,1016.3
2016-08-27T06:04:06.883Z,1016.42
2016-08-27T06:05:06.912Z,1016.46
2016-08-27T06:06:06.951Z,1016.51
2016-08-27T06:07:06.978Z,1016.54
2016-08-27T06:08:07.012Z,1016.61
2016-08-27T06:09:07.049Z,1016.7
2016-08-27T06:10:07.081Z,1016.74
2016-08-27T06:11:07.117Z,1016.77
2016-08-27T06:12:07.149Z,1016.78
2016-08-27T06:13:07.185Z,1016.82
2016-08-27T06:14:07.218Z,1016.89
2016-08-27T06:15:07.253Z,1016.89
2016-08-27T06:16:07.294Z,1016.89
2016-08-27T06:17:07.330Z,1016.91
2016-08-27T06:18:07.359Z,1017.02
2016-08-27T06:19:07.395Z,1016.98
2016-08-27T06:20:07.431Z,1016.94
2016-08-27T06:21:07.469Z,1016.98
2016-08-27T06:22:07.498Z,1016.98
2016-08-27T06:23:07.533Z,1016.97
2016-08-27T06:24:07.588Z,1016.96
2016-08-27T06:25:07.606Z,1016.96
2016-08-27T06:27:07.681Z,1016.85
2016-08-27T06:28:07.710Z,1016.91
2016-08-27T06:29:07.746Z,1016.92
2016-08-27T06:30:07.782Z,1016.86
2016-08-27T06:31:07.829Z,1016.88
2016-08-27T06:32:07.853Z,1016.88
2016-08-27T06:33:07.895Z,1016.87
2016-08-27T06:34:07.926Z,1016.83
2016-08-27T06:35:07.960Z,1016.86
2016-08-27T06:36:07.996Z,1016.84
2016-08-27T06:37:08.039Z,1016.8
2016-08-27T06:38:08.074Z,1016.81
2016-08-27T06:39:08.111Z,1016.81
2016-08-27T06:40:08.139Z,1016.78
2016-08-27T06:41:08.178Z,1016.82
2016-08-27T06:43:08.251Z,1016.81
2016-08-27T06:44:08.290Z,1016.76
2016-08-27T06:45:08.323Z,1016.79
2016-08-27T06:46:08.363Z,1016.81
2016-08-27T06:47:08.399Z,1016.83
2016-08-27T06:48:08.431Z,1016.89
2016-08-27T06:49:08.467Z,1016.91
2016-08-27T06:50:08.503Z,1016.92
2016-08-27T06:51:08.538Z,1016.93
2016-08-27T06:52:08.574Z,1016.94
2016-08-27T06:53:08.612Z,1016.91
2016-08-27T06:54:08.655Z,1016.93
2016-08-27T06:55:08.686Z,1016.93
2016-08-27T06:56:08.727Z,1016.96
2016-08-27T06:57:08.764Z,1016.93
2016-08-27T06:59:08.831Z,1016.94
2016-08-27T07:00:08.868Z,1016.88
2016-08-27T07:01:08.904Z,1016.88
2016-08-27T07:02:08.942Z,1016.92
2016-08-27T07:03:08.977Z,1016.88
2016-08-27T07:04:09.014Z,1016.88
2016-08-27T07:05:09.050Z,1016.84
2016-08-27T07:06:09.086Z,1016.8
2016-08-27T07:07:09.124Z,1016.89
2016-08-27T07:08:09.160Z,1016.86
2016-08-27T07:09:09.195Z,1016.84
2016-08-27T07:10:09.239Z,1016.82
2016-08-27T07:11:09.272Z,1016.79
2016-08-27T07:12:09.306Z,1016.77
2016-08-27T07:13:09.342Z,1016.79
2016-08-27T07:15:09.418Z,1016.73
2016-08-27T07:16:09.459Z,1016.73
2016-08-27T07:17:09.488Z,1016.74
2016-08-27T07:18:09.532Z,1016.77
2016-08-27T07:19:09.563Z,1016.79
2016-08-27T07:20:09.605Z,1016.8
2016-08-27T07:21:09.642Z,1016.73
2016-08-27T07:22:09.680Z,1016.7
2016-08-27T07:23:09.709Z,1016.67
2016-08-27T07:24:09.744Z,1016.72
2016-08-27T07:25:09.788Z,1016.68
2016-08-27T07:26:09.818Z,1016.72
2016-08-27T07:27:09.862Z,1016.78
2016-08-27T07:28:09.893Z,1016.7
2016-08-27T07:30:09.966Z,1016.69
2016-08-27T07:31:10.004Z,1016.68
2016-08-27T07:32:10.039Z,1016.75
2016-08-27T07:33:10.075Z,1016.66
2016-08-27T07:34:10.119Z,1016.66
2016-08-27T07:35:10.150Z,1016.72
2016-08-27T07:36:10.185Z,1016.82
2016-08-27T07:37:10.223Z,1016.84
2016-08-27T07:38:10.264Z,1016.8
2016-08-27T07:39:10.297Z,1016.8
2016-08-27T07:40:10.338Z,1016.78
2016-08-27T07:41:10.375Z,1016.78
2016-08-27T07:42:10.406Z,1016.71
2016-08-27T07:43:10.441Z,1016.71
2016-08-27T07:44:10.477Z,1016.65
2016-08-27T07:45:10.515Z,1016.68
2016-08-27T07:46:10.551Z,1016.59
2016-08-27T07:47:10.588Z,1016.6
2016-08-27T07:48:10.625Z,1016.59
2016-08-27T07:49:10.667Z,1016.56
2016-08-27T07:50:10.696Z,1016.46
2016-08-27T07:51:10.740Z,1016.49
2016-08-27T07:52:10.776Z,1016.44
2016-08-27T07:53:10.806Z,1016.45
2016-08-27T07:54:10.849Z,1016.37
2016-08-27T07:55:10.879Z,1016.4
2016-08-27T07:56:10.919Z,1016.39
2016-08-27T07:57:10.959Z,1016.35
2016-08-27T07:58:10.989Z,1016.4
2016-08-27T07:59:11.032Z,1016.43
2016-08-27T08:00:11.062Z,1016.45
2016-08-27T08:02:11.135Z,1016.45
2016-08-27T08:03:11.174Z,1016.47
2016-08-27T08:04:11.208Z,1016.49
2016-08-27T08:05:11.245Z,1016.52
2016-08-27T08:06:11.281Z,1016.49
2016-08-27T08:07:11.319Z,1016.44
2016-08-27T08:08:11.354Z,1016.37
2016-08-27T08:09:11.391Z,1016.3
2016-08-27T08:10:11.433Z,1016.28
2016-08-27T08:11:11.463Z,1016.27
2016-08-27T08:12:11.549Z,1016.26
2016-08-27T08:13:11.539Z,1016.28
2016-08-27T08:14:11.574Z,1016.27
2016-08-27T08:15:11.610Z,1016.28
2016-08-27T08:16:11.646Z,1016.22
2016-08-27T08:18:11.726Z,1016.21
2016-08-27T08:19:11.756Z,1016.31
2016-08-27T08:20:11.794Z,1016.31
2016-08-27T08:21:11.835Z,1016.27
2016-08-27T08:22:11.866Z,1016.23
2016-08-27T08:23:11.907Z,1016.2
2016-08-27T08:24:11.944Z,1016.19
2016-08-27T08:25:11.975Z,1016.21
2016-08-27T08:26:12.009Z,1016.26
2016-08-27T08:27:12.049Z,1016.36
2016-08-27T08:28:12.082Z,1016.42
2016-08-27T08:29:12.128Z,1016.35
2016-08-27T08:30:12.155Z,1016.37
2016-08-27T08:31:12.194Z,1016.39
2016-08-27T08:32:12.234Z,1016.33
2016-08-27T08:34:12.300Z,1016.27
2016-08-27T08:35:12.335Z,1016.29
2016-08-27T08:36:12.374Z,1016.24
2016-08-27T08:37:12.413Z,1016.17
2016-08-27T08:38:12.443Z,1016.06
2016-08-27T08:39:12.485Z,1016.03
2016-08-27T08:40:12.517Z,1016.07
2016-08-27T08:41:12.557Z,1015.99
2016-08-27T08:42:12.587Z,1015.99
2016-08-27T08:43:12.630Z,1016.01
2016-08-27T08:44:12.659Z,1015.99
2016-08-27T08:45:12.701Z,1016.01
2016-08-27T08:46:12.733Z,1015.97
2016-08-27T08:47:12.767Z,1015.9
2016-08-27T08:48:12.809Z,1015.98
2016-08-27T08:50:12.878Z,1015.94
2016-08-27T08:51:12.913Z,1015.9
2016-08-27T08:52:12.946Z,1015.9
2016-08-27T08:53:12.983Z,1015.89
2016-08-27T08:54:13.020Z,1015.91
2016-08-27T08:55:13.056Z,1015.89
2016-08-27T08:56:13.095Z,1015.91
2016-08-27T08:57:13.126Z,1015.9
2016-08-27T08:58:13.161Z,1015.9
2016-08-27T08:59:13.197Z,1015.9
2016-08-27T09:00:13.235Z,1015.89
2016-08-27T09:01:13.275Z,1015.91
2016-08-27T09:02:13.357Z,1015.91
2016-08-27T09:03:13.348Z,1015.92
2016-08-27T09:05:13.414Z,1015.92
2016-08-27T09:06:13.455Z,1015.91
2016-08-27T09:07:13.486Z,1015.94
2016-08-27T09:08:13.521Z,1015.94
2016-08-27T09:09:13.557Z,1015.91
2016-08-27T09:10:13.595Z,1015.9
2016-08-27T09:11:13.634Z,1015.84
2016-08-27T09:12:13.670Z,1015.91
2016-08-27T09:13:13.700Z,1015.89
2016-08-27T09:14:13.735Z,1015.89
2016-08-27T09:15:13.771Z,1015.9
2016-08-27T09:16:13.807Z,1015.88
2016-08-27T09:17:13.849Z,1015.86
2016-08-27T09:18:13.885Z,1015.86
2016-08-27T09:19:13.917Z,1015.86
2016-08-27T09:20:14.006Z,1015.85
2016-08-27T09:21:13.985Z,1015.83
2016-08-27T09:22:14.028Z,1015.8
2016-08-27T09:23:14.057Z,1015.84
2016-08-27T09:24:14.099Z,1015.86
2016-08-27T09:25:14.129Z,1015.88
2016-08-27T09:26:14.165Z,1015.85
2016-08-27T09:27:14.201Z,1015.86
2016-08-27T09:28:14.236Z,1015.87
2016-08-27T09:29:14.271Z,1015.84
2016-08-27T09:30:14.309Z,1015.89
2016-08-27T09:31:14.343Z,1015.9
2016-08-27T09:32:14.378Z,1015.87
2016-08-27T09:33:14.420Z,1015.91
2016-08-27T09:34:14.452Z,1015.9
2016-08-27T09:35:14.484Z,1015.85
2016-08-27T09:37:14.562Z,1015.86
2016-08-27T09:38:14.593Z,1015.85
2016-08-27T09:39:14.626Z,1015.84
2016-08-27T09:40:14.663Z,1015.82
2016-08-27T09:41:14.698Z,1015.8
2016-08-27T09:42:14.740Z,1015.87
2016-08-27T09:43:14.774Z,1015.79
2016-08-27T09:44:14.804Z,1015.82
2016-08-27T09:45:14.840Z,1015.83
2016-08-27T09:46:14.880Z,1015.82
2016-08-27T09:47:14.917Z,1015.88
2016-08-27T09:48:14.948Z,1015.87
2016-08-27T09:49:14.989Z,1015.88
2016-08-27T09:50:15.017Z,1015.87
2016-08-27T09:51:15.059Z,1015.88
2016-08-27T09:53:15.126Z,1015.83
2016-08-27T09:54:15.159Z,1015.81
2016-08-27T09:55:15.196Z,1015.81
2016-08-27T09:56:15.241Z,1015.84
2016-08-27T09:57:15.265Z,1015.84
2016-08-27T09:58:15.300Z,1015.86
2016-08-27T09:59:15.336Z,1015.88
2016-08-27T10:00:15.371Z,1015.82
2016-08-27T10:01:15.407Z,1015.89
2016-08-27T10:02:15.448Z,1015.88
2016-08-27T10:03:15.480Z,1015.85
2016-08-27T10:04:15.513Z,1015.88
2016-08-27T10:05:15.549Z,1015.81
2016-08-27T10:06:15.583Z,1015.84
2016-08-27T10:07:15.618Z,1015.78
2016-08-27T10:09:15.695Z,1015.72
2016-08-27T10:10:15.724Z,1015.72
2016-08-27T10:11:15.766Z,1015.71
2016-08-27T10:12:15.794Z,1015.73
2016-08-27T10:13:15.836Z,1015.68
2016-08-27T10:14:15.865Z,1015.66
2016-08-27T10:15:15.907Z,1015.65
2016-08-27T10:16:15.942Z,1015.62
2016-08-27T10:17:15.973Z,1015.64
2016-08-27T10:18:16.005Z,1015.66
2016-08-27T10:19:16.042Z,1015.64
2016-08-27T10:20:16.076Z,1015.6
2016-08-27T10:21:16.113Z,1015.64
2016-08-27T10:22:16.202Z,1015.58
2016-08-27T10:23:16.180Z,1015.57
2016-08-27T10:25:16.257Z,1015.6
2016-08-27T10:26:16.289Z,1015.57
2016-08-27T10:27:16.321Z,1015.6
2016-08-27T10:28:16.358Z,1015.57
2016-08-27T10:29:16.397Z,1015.57
2016-08-27T10:30:16.425Z,1015.57
2016-08-27T10:31:16.460Z,1015.54
2016-08-27T10:32:16.501Z,1015.56
2016-08-27T10:33:16.536Z,1015.59
2016-08-27T10:34:16.567Z,1015.54
2016-08-27T10:35:16.606Z,1015.52
2016-08-27T10:36:16.634Z,1015.5
2016-08-27T10:37:16.669Z,1015.52
2016-08-27T10:38:16.706Z,1015.5
2016-08-27T10:40:16.781Z,1015.51
2016-08-27T10:41:16.810Z,1015.51
2016-08-27T10:42:16.850Z,1015.52
2016-08-27T10:43:16.878Z,1015.52
2016-08-27T10:44:16.913Z,1015.5
2016-08-27T10:45:16.949Z,1015.53
2016-08-27T10:46:16.987Z,1015.52
2016-08-27T10:47:17.021Z,1015.53
2016-08-27T10:48:17.049Z,1015.5
2016-08-27T10:49:17.085Z,1015.52
2016-08-27T10:50:17.119Z,1015.5
2016-08-27T10:51:17.154Z,1015.51
2016-08-27T10:52:17.189Z,1015.5
2016-08-27T10:53:17.228Z,1015.49
2016-08-27T10:54:17.263Z,1015.49
2016-08-27T10:55:17.290Z,1015.55
2016-08-27T10:56:17.329Z,1015.51
2016-08-27T10:57:17.357Z,1015.49
2016-08-27T10:58:17.394Z,1015.5
2016-08-27T10:59:17.431Z,1015.46
2016-08-27T11:00:17.459Z,1015.5
2016-08-27T11:01:17.493Z,1015.48
2016-08-27T11:02:17.528Z,1015.45
2016-08-27T11:03:17.561Z,1015.46
2016-08-27T11:04:17.601Z,1015.45
2016-08-27T11:05:17.631Z,1015.44
2016-08-27T11:06:17.669Z,1015.45
2016-08-27T11:07:17.698Z,1015.42
2016-08-27T11:08:17.730Z,1015.43
2016-08-27T11:09:17.766Z,1015.47
2016-08-27T11:10:17.797Z,1015.43
2016-08-27T11:12:17.864Z,1015.4
2016-08-27T11:13:17.905Z,1015.4
2016-08-27T11:14:17.933Z,1015.4
2016-08-27T11:15:17.965Z,1015.4
2016-08-27T11:16:18.002Z,1015.39
2016-08-27T11:17:18.040Z,1015.43
2016-08-27T11:18:18.072Z,1015.37
2016-08-27T11:19:18.102Z,1015.37
2016-08-27T11:20:18.140Z,1015.34
2016-08-27T11:21:18.168Z,1015.37
2016-08-27T11:22:18.257Z,1015.39
2016-08-27T11:23:18.236Z,1015.38
2016-08-27T11:24:18.269Z,1015.4
2016-08-27T11:25:18.303Z,1015.39
2016-08-27T11:26:18.385Z,1015.37
2016-08-27T11:28:18.407Z,1015.35
2016-08-27T11:29:18.441Z,1015.36
2016-08-27T11:30:18.471Z,1015.42
2016-08-27T11:31:18.502Z,1015.39
2016-08-27T11:32:18.537Z,1015.36
2016-08-27T11:33:18.575Z,1015.36
2016-08-27T11:34:18.605Z,1015.37
2016-08-27T11:35:18.642Z,1015.35
2016-08-27T11:36:18.671Z,1015.35
2016-08-27T11:37:18.708Z,1015.33
2016-08-27T11:38:18.739Z,1015.35
2016-08-27T11:39:18.771Z,1015.31
2016-08-27T11:40:18.809Z,1015.35
2016-08-27T11:41:18.843Z,1015.34
2016-08-27T11:42:18.870Z,1015.33
2016-08-27T11:44:18.943Z,1015.32
2016-08-27T11:45:18.972Z,1015.28
2016-08-27T11:46:19.004Z,1015.33
2016-08-27T11:47:19.043Z,1015.32
2016-08-27T11:48:19.072Z,1015.33
2016-08-27T11:49:19.105Z,1015.32
2016-08-27T11:50:19.137Z,1015.3
2016-08-27T11:51:19.177Z,1015.31
2016-08-27T11:52:19.206Z,1015.28
2016-08-27T11:53:19.238Z,1015.3
2016-08-27T11:54:19.277Z,1015.27
2016-08-27T11:55:19.306Z,1015.26
2016-08-27T11:56:19.340Z,1015.24
2016-08-27T11:57:19.372Z,1015.26
2016-08-27T11:58:19.411Z,1015.25
2016-08-27T12:00:19.474Z,1015.27
2016-08-27T12:01:19.505Z,1015.27
2016-08-27T12:02:19.540Z,1015.2
2016-08-27T12:03:19.573Z,1015.25
2016-08-27T12:04:19.604Z,1015.19
2016-08-27T12:05:19.637Z,1015.19
2016-08-27T12:06:19.677Z,1015.19
2016-08-27T12:07:19.704Z,1015.15
2016-08-27T12:08:19.738Z,1015.13
2016-08-27T12:09:19.772Z,1015.18
2016-08-27T12:10:19.804Z,1015.18
2016-08-27T12:11:19.839Z,1015.17
2016-08-27T12:12:19.878Z,1015.19
2016-08-27T12:13:19.905Z,1015.17
2016-08-27T12:15:19.974Z,1015.19
2016-08-27T12:16:20.005Z,1015.16
2016-08-27T12:17:20.044Z,1015.14
2016-08-27T12:18:20.077Z,1015.15
2016-08-27T12:19:20.107Z,1015.16
2016-08-27T12:20:20.144Z,1015.16
2016-08-27T12:21:20.174Z,1015.16
2016-08-27T12:22:20.261Z,1015.13
2016-08-27T12:23:20.237Z,1015.12
2016-08-27T12:24:20.278Z,1015.11
2016-08-27T12:25:20.357Z,1015.1
2016-08-27T12:26:20.340Z,1015.07
2016-08-27T12:27:20.371Z,1015.04
2016-08-27T12:28:20.405Z,1015.08
2016-08-27T12:29:20.445Z,1015.06
2016-08-27T12:30:20.524Z,1015.02
2016-08-27T12:31:20.503Z,1015.06
2016-08-27T12:32:20.539Z,1015.06
2016-08-27T12:33:20.571Z,1015.06
2016-08-27T12:34:20.606Z,1015.07
2016-08-27T12:35:20.637Z,1015.05
2016-08-27T12:36:20.671Z,1015.06
2016-08-27T12:37:20.711Z,1015.05
2016-08-27T12:38:20.737Z,1015.04
2016-08-27T12:39:20.772Z,1015.04
2016-08-27T12:40:20.810Z,1015.04
2016-08-27T12:41:20.836Z,1014.99
2016-08-27T12:42:20.875Z,1014.99
2016-08-27T12:43:20.903Z,1014.99
2016-08-27T12:44:20.936Z,1014.93
2016-08-27T12:45:20.970Z,1014.98
2016-08-27T12:47:21.038Z,1014.88
2016-08-27T12:48:21.068Z,1014.86
2016-08-27T12:49:21.101Z,1014.89
2016-08-27T12:50:21.136Z,1014.89